Time;durP1;ratioP1;P1;durP2;ratioP2;P2;SDS_P1;SDS_P2;PMS_P1;PMS_P2;Temp;Humidity;BMP_temperature;BMP_pressure;BME280_temperature;BME280_humidity;BME280_pressure;Samples;Min_cycle;Max_cycle;Signal;HPM_P1;HPM_P2
2022/05/20 00:01:52;;;;;;;10.20;8.20;;;15.40;99.90;;;;;;5093272;28;20382;-67
2022/05/20 00:04:17;;;;;;;10.90;8.13;;;15.40;99.90;;;;;;5093119;28;20044;-67
2022/05/20 00:06:43;;;;;;;13.52;7.95;;;15.40;99.90;;;;;;5093070;28;20071;-67
2022/05/20 00:09:09;;;;;;;12.32;8.40;;;15.30;99.90;;;;;;5092582;28;20046;-67
2022/05/20 00:11:35;;;;;;;12.57;8.23;;;15.30;99.90;;;;;;5092763;28;20051;-67
2022/05/20 00:14:01;;;;;;;12.80;8.20;;;15.30;99.90;;;;;;5093062;28;20040;-67
2022/05/20 00:16:29;;;;;;;10.50;7.90;;;15.30;99.90;;;;;;5092993;28;20062;-66
2022/05/20 00:18:54;;;;;;;13.75;8.65;;;15.30;99.90;;;;;;5092567;28;20036;-67
2022/05/20 00:21:20;;;;;;;12.00;8.73;;;15.20;99.90;;;;;;5091505;28;20093;-67
2022/05/20 00:23:45;;;;;;;14.27;8.48;;;15.30;99.90;;;;;;5091531;28;20130;-67
2022/05/20 00:26:11;;;;;;;12.75;8.90;;;15.30;99.90;;;;;;5092558;28;20075;-67
2022/05/20 00:28:36;;;;;;;10.18;7.88;;;15.30;99.90;;;;;;5092483;28;20123;-67
2022/05/20 00:31:09;;;;;;;12.18;6.88;;;15.30;99.90;;;;;;5091388;28;20044;-67
2022/05/20 00:33:35;;;;;;;;;;;15.30;99.90;;;;;;5093280;28;20032;-67
2022/05/20 00:36:01;;;;;;;11.38;7.38;;;15.20;99.90;;;;;;5092558;28;19916;-66
2022/05/20 00:38:27;;;;;;;10.02;6.90;;;15.20;99.90;;;;;;5092140;28;20047;-67
2022/05/20 00:40:54;;;;;;;9.20;6.97;;;15.20;99.90;;;;;;5092261;28;20069;-67
2022/05/20 00:43:26;;;;;;;11.32;6.97;;;15.20;99.90;;;;;;5092456;28;20090;-67
2022/05/20 00:46:00;;;;;;;12.02;7.43;;;15.10;99.90;;;;;;5092269;28;20499;-67
2022/05/20 00:48:28;;;;;;;14.10;7.70;;;15.10;99.90;;;;;;5092157;28;20044;-67
2022/05/20 00:51:04;;;;;;;11.93;7.63;;;15.10;99.90;;;;;;5092042;28;20077;-67
2022/05/20 00:53:38;;;;;;;11.38;7.25;;;15.20;99.90;;;;;;5092352;28;20044;-67
2022/05/20 00:56:06;;;;;;;9.65;7.53;;;15.10;99.90;;;;;;5092403;28;20032;-67
2022/05/20 00:58:32;;;;;;;15.80;8.27;;;15.20;99.90;;;;;;5091822;28;20412;-67
2022/05/20 01:01:01;;;;;;;15.82;8.30;;;15.10;99.90;;;;;;5091890;28;20048;-67
2022/05/20 01:03:29;;;;;;;11.82;8.27;;;14.90;99.90;;;;;;5090615;28;20150;-67
2022/05/20 01:05:55;;;;;;;16.92;8.57;;;14.90;99.90;;;;;;5091857;28;20050;-67
2022/05/20 01:08:27;;;;;;;14.00;9.00;;;14.90;99.90;;;;;;5091895;28;20040;-67
2022/05/20 01:10:53;;;;;;;16.95;8.77;;;14.90;99.90;;;;;;5091816;28;20040;-67
2022/05/20 01:13:23;;;;;;;17.00;9.65;;;15.00;99.90;;;;;;5091819;28;20036;-67
2022/05/20 01:15:49;;;;;;;14.05;9.23;;;15.00;99.90;;;;;;5091854;28;20395;-67
2022/05/20 01:18:15;;;;;;;16.25;9.18;;;14.90;99.90;;;;;;5091571;28;20086;-67
2022/05/20 01:20:48;;;;;;;13.18;9.10;;;15.00;99.90;;;;;;5091433;28;20047;-66
2022/05/20 01:23:19;;;;;;;15.65;10.32;;;15.00;99.90;;;;;;5090284;28;20114;-67
2022/05/20 01:25:48;;;;;;;15.40;10.43;;;15.00;99.90;;;;;;5091606;28;20048;-67
2022/05/20 01:28:16;;;;;;;16.50;10.38;;;14.90;99.90;;;;;;5091402;28;20263;-67
2022/05/20 01:30:46;;;;;;;16.42;9.68;;;14.90;99.90;;;;;;5090989;28;20083;-67
2022/05/20 01:33:37;;;;;;;17.63;10.93;;;14.90;99.90;;;;;;5091813;28;20040;-67
2022/05/20 01:36:07;;;;;;;21.30;10.85;;;15.00;99.90;;;;;;5090816;28;20044;-67
2022/05/20 01:38:33;;;;;;;16.30;11.25;;;14.90;99.90;;;;;;5091044;28;20031;-67
2022/05/20 01:41:20;;;;;;;25.88;10.98;;;14.80;99.90;;;;;;5091153;28;20111;-67
2022/05/20 01:44:18;;;;;;;19.38;11.85;;;14.90;99.90;;;;;;5091483;28;20062;-67
2022/05/20 01:46:55;;;;;;;18.50;11.98;;;14.90;99.90;;;;;;5091200;28;20059;-67
2022/05/20 01:49:29;;;;;;;15.60;10.70;;;14.90;99.90;;;;;;5090185;28;20047;-67
2022/05/20 01:52:10;;;;;;;17.33;11.35;;;14.80;99.90;;;;;;5089778;28;20044;-67
2022/05/20 01:54:52;;;;;;;15.88;10.75;;;14.90;99.90;;;;;;5091201;28;20036;-67
2022/05/20 01:57:39;;;;;;;16.23;10.50;;;14.80;99.90;;;;;;5091166;28;20052;-67
2022/05/20 02:00:10;;;;;;;15.90;10.77;;;14.90;99.90;;;;;;5090703;28;20071;-67
2022/05/20 02:03:05;;;;;;;19.13;10.27;;;14.90;99.90;;;;;;5091038;28;20051;-67
2022/05/20 02:06:07;;;;;;;14.18;10.05;;;14.90;99.90;;;;;;5081693;28;20056;-67
2022/05/20 02:08:58;;;;;;;15.88;9.77;;;14.80;99.90;;;;;;5090758;28;20040;-67
2022/05/20 02:11:31;;;;;;;18.25;10.95;;;14.90;99.90;;;;;;5090827;28;20036;-67
2022/05/20 02:14:10;;;;;;;13.77;9.77;;;14.90;99.90;;;;;;5090822;28;20527;-67
2022/05/20 02:16:39;;;;;;;18.85;9.80;;;14.80;99.90;;;;;;5090833;28;20047;-67
2022/05/20 02:19:14;;;;;;;14.20;10.57;;;14.80;99.90;;;;;;5090720;28;20028;-67
2022/05/20 02:21:43;;;;;;;17.30;9.25;;;14.80;99.90;;;;;;5090913;28;20451;-67
2022/05/20 02:24:13;;;;;;;15.38;10.40;;;14.80;99.90;;;;;;5090919;28;20174;-67
2022/05/20 02:26:45;;;;;;;16.42;10.10;;;14.80;99.90;;;;;;5090855;28;20044;-67
2022/05/20 02:29:21;;;;;;;15.23;9.25;;;14.80;99.90;;;;;;5089267;28;20557;-67
2022/05/20 02:32:01;;;;;;;18.58;9.88;;;14.80;99.90;;;;;;5090719;28;20044;-67
2022/05/20 02:34:29;;;;;;;12.52;8.90;;;14.70;99.90;;;;;;5090705;28;20068;-67
2022/05/20 02:36:54;;;;;;;15.63;9.50;;;14.80;99.90;;;;;;5090699;28;20047;-67
2022/05/20 02:39:21;;;;;;;16.48;9.50;;;14.70;99.90;;;;;;5090156;28;20036;-67
2022/05/20 02:41:48;;;;;;;13.20;8.90;;;14.80;99.90;;;;;;5090841;28;20044;-67
2022/05/20 02:44:15;;;;;;;14.50;8.30;;;14.70;99.90;;;;;;5090696;28;20093;-67
2022/05/20 02:46:46;;;;;;;16.15;8.93;;;14.70;99.90;;;;;;5090686;28;20043;-67
2022/05/20 02:49:11;;;;;;;14.27;9.40;;;14.70;99.90;;;;;;5090244;28;20189;-66
2022/05/20 02:51:37;;;;;;;14.45;8.48;;;14.70;99.90;;;;;;5090414;28;20127;-67
2022/05/20 02:54:04;;;;;;;14.57;9.20;;;14.70;99.90;;;;;;5089158;28;20063;-67
2022/05/20 02:56:31;;;;;;;13.63;8.70;;;14.60;99.90;;;;;;5090717;28;20075;-66
2022/05/20 03:04:25;;;;;;;16.40;8.23;;;14.60;99.90;;;;;;5094148;28;20052;-67
2022/05/20 03:06:52;;;;;;;12.75;7.90;;;14.60;99.90;;;;;;5094432;28;20400;-67
2022/05/20 03:09:20;;;;;;;14.60;7.47;;;14.50;99.90;;;;;;5093972;28;20131;-67
2022/05/20 03:11:47;;;;;;;14.23;7.05;;;14.50;99.90;;;;;;5094213;28;20048;-67
2022/05/20 03:14:15;;;;;;;11.93;7.85;;;14.50;99.90;;;;;;5094118;28;20065;-67
2022/05/20 03:16:41;;;;;;;12.77;7.30;;;14.60;99.90;;;;;;5094072;28;20078;-67
2022/05/20 03:19:07;;;;;;;12.35;7.10;;;14.60;99.90;;;;;;5075627;28;20043;-67
2022/05/20 03:21:34;;;;;;;10.93;7.22;;;14.50;99.90;;;;;;5075719;28;20036;-67
2022/05/20 03:24:01;;;;;;;13.70;7.30;;;14.50;99.90;;;;;;5092763;28;20043;-67
2022/05/20 03:26:28;;;;;;;12.20;7.30;;;14.50;99.90;;;;;;5093924;28;20091;-67
2022/05/20 03:28:54;;;;;;;15.15;7.80;;;14.50;99.90;;;;;;5093489;28;20043;-67
2022/05/20 03:31:19;;;;;;;12.90;6.97;;;14.50;99.90;;;;;;5093582;28;20467;-67
2022/05/20 03:33:46;;;;;;;11.63;6.80;;;14.40;99.90;;;;;;5091845;28;20388;-67
2022/05/20 03:36:12;;;;;;;15.85;7.88;;;14.40;99.90;;;;;;5090736;28;20040;-67
2022/05/20 03:38:38;;;;;;;11.95;7.30;;;14.40;99.90;;;;;;5091119;28;20606;-67
2022/05/20 03:41:05;;;;;;;14.15;8.07;;;14.40;99.90;;;;;;5093690;28;20474;-67
2022/05/20 03:43:31;;;;;;;18.13;7.82;;;14.50;99.90;;;;;;5092931;28;20044;-67
2022/05/20 03:45:56;;;;;;;12.85;7.40;;;14.40;99.90;;;;;;5092514;28;20047;-67
2022/05/20 03:48:22;;;;;;;12.00;7.53;;;14.30;99.90;;;;;;5092918;28;20051;-67
2022/05/20 03:50:48;;;;;;;15.40;7.35;;;14.30;99.90;;;;;;5093261;28;20051;-67
2022/05/20 03:53:14;;;;;;;15.70;7.50;;;14.20;99.90;;;;;;5093446;28;20403;-67
2022/05/20 03:55:40;;;;;;;14.85;8.20;;;14.10;99.90;;;;;;5092247;28;20397;-67
2022/05/20 03:58:06;;;;;;;13.75;7.35;;;14.20;99.90;;;;;;5093343;28;20042;-67
2022/05/20 04:01:56;;;;;;;12.70;7.55;;;14.20;99.90;;;;;;5092652;28;20470;-67
2022/05/20 04:03:18;;;;;;;14.05;7.70;;;14.30;99.90;;;;;;5093128;28;20146;-67
2022/05/20 04:05:45;;;;;;;12.65;7.72;;;14.10;99.90;;;;;;5092884;28;20535;-67
2022/05/20 04:08:10;;;;;;;14.95;7.40;;;14.30;99.90;;;;;;5093078;28;20039;-67
2022/05/20 04:10:37;;;;;;;12.82;6.88;;;14.20;99.90;;;;;;5092565;28;20497;-67
2022/05/20 04:13:02;;;;;;;15.52;8.57;;;14.30;99.90;;;;;;5092344;28;20036;-67
2022/05/20 04:15:28;;;;;;;12.63;8.80;;;14.30;99.90;;;;;;5093023;28;20120;-67
2022/05/20 04:17:53;;;;;;;12.63;8.45;;;14.40;99.90;;;;;;5092936;28;20040;-67
2022/05/20 04:20:19;;;;;;;14.90;8.88;;;14.30;99.90;;;;;;5092626;28;20036;-67
2022/05/20 04:22:45;;;;;;;14.68;9.38;;;14.40;99.90;;;;;;5092853;28;20043;-67
2022/05/20 04:25:11;;;;;;;11.43;8.02;;;14.40;99.90;;;;;;5092730;28;20044;-67
2022/05/20 04:27:38;;;;;;;17.60;8.40;;;14.40;99.90;;;;;;5092659;28;20496;-67
2022/05/20 04:30:04;;;;;;;14.18;8.57;;;14.50;99.90;;;;;;5092225;28;20488;-67
2022/05/20 04:32:30;;;;;;;15.50;8.63;;;14.50;99.90;;;;;;5092686;28;20032;-67
2022/05/20 04:34:55;;;;;;;17.90;8.63;;;14.50;99.90;;;;;;5092673;28;20598;-67
2022/05/20 04:37:23;;;;;;;11.85;8.40;;;14.50;99.90;;;;;;5092484;28;20119;-67
2022/05/20 04:39:48;;;;;;;14.30;8.27;;;14.50;99.90;;;;;;5092052;28;20047;-67
2022/05/20 04:47:42;;;;;;;12.10;7.25;;;14.60;99.90;;;;;;5092297;28;20043;-67
2022/05/20 04:50:08;;;;;;;11.85;8.10;;;14.80;99.90;;;;;;5090577;28;20564;-67
2022/05/20 04:52:34;;;;;;;12.77;8.65;;;14.90;99.90;;;;;;5092017;28;20053;-67
2022/05/20 04:55:00;;;;;;;18.98;9.30;;;14.80;99.90;;;;;;5092013;28;20046;-67
2022/05/20 04:57:30;;;;;;;13.35;9.60;;;14.80;99.90;;;;;;5092220;28;20028;-67
2022/05/20 05:00:00;;;;;;;17.45;9.15;;;14.70;99.90;;;;;;5091625;28;20040;-67
2022/05/20 05:02:26;;;;;;;14.23;9.45;;;14.80;99.90;;;;;;5092049;28;20181;-67
2022/05/20 05:04:53;;;;;;;14.23;9.40;;;14.60;99.90;;;;;;5091910;28;20415;-67
2022/05/20 05:07:18;;;;;;;18.05;10.32;;;14.60;99.90;;;;;;5091753;28;20557;-67
2022/05/20 05:09:45;;;;;;;16.30;9.60;;;14.60;99.90;;;;;;5091715;28;20039;-67
2022/05/20 05:12:11;;;;;;;15.63;10.18;;;14.60;99.90;;;;;;5091922;28;20032;-67
2022/05/20 05:14:38;;;;;;;15.15;9.63;;;14.50;99.90;;;;;;5091851;28;20036;-67
2022/05/20 05:17:09;;;;;;;16.38;10.80;;;14.60;99.90;;;;;;5091744;28;20061;-67
2022/05/20 05:19:37;;;;;;;19.10;10.35;;;14.70;99.90;;;;;;5091457;28;20032;-67
2022/05/20 05:22:07;;;;;;;15.13;10.13;;;14.80;99.90;;;;;;5091642;28;20044;-67
2022/05/20 05:24:34;;;;;;;12.18;9.98;;;14.80;99.90;;;;;;5091231;28;20040;-67
2022/05/20 05:27:00;;;;;;;16.58;11.18;;;14.70;99.90;;;;;;5091518;28;20496;-67
2022/05/20 05:29:26;;;;;;;20.75;11.52;;;14.70;99.90;;;;;;5091271;28;20036;-68
2022/05/20 05:31:52;;;;;;;16.20;10.55;;;14.80;99.90;;;;;;5091321;28;20496;-67
2022/05/20 05:34:18;;;;;;;16.63;9.90;;;15.00;99.90;;;;;;5091320;28;20059;-67
2022/05/20 05:36:43;;;;;;;17.40;10.55;;;15.20;99.90;;;;;;5091251;28;20500;-67
2022/05/20 05:39:09;;;;;;;17.27;10.25;;;15.10;99.90;;;;;;5091133;28;20043;-67
2022/05/20 05:41:35;;;;;;;16.52;10.77;;;15.20;99.90;;;;;;5091352;28;20039;-67
2022/05/20 05:44:01;;;;;;;14.40;10.52;;;15.20;99.90;;;;;;5089937;28;20036;-67
2022/05/20 05:46:27;;;;;;;18.67;10.95;;;15.40;99.90;;;;;;5091201;28;20047;-67
2022/05/20 05:48:52;;;;;;;18.23;10.77;;;15.50;99.90;;;;;;5090639;28;20522;-67
2022/05/20 05:51:18;;;;;;;15.35;10.77;;;15.50;99.90;;;;;;5091037;28;20548;-67
2022/05/20 05:53:43;;;;;;;19.00;10.90;;;15.60;99.90;;;;;;5091077;28;20062;-67
2022/05/20 05:56:09;;;;;;;15.07;10.50;;;15.60;99.90;;;;;;5089923;28;20178;-67
2022/05/20 05:58:36;;;;;;;15.82;9.40;;;15.70;99.90;;;;;;5090797;28;20111;-67
2022/05/20 06:01:02;;;;;;;17.25;9.20;;;15.60;99.90;;;;;;5089572;28;20040;-67
2022/05/20 06:03:28;;;;;;;14.45;8.55;;;15.50;99.90;;;;;;5090855;28;20047;-68
2022/05/20 06:05:55;;;;;;;16.55;8.57;;;15.50;99.90;;;;;;5091066;28;20046;-67
2022/05/20 06:08:21;;;;;;;11.38;8.15;;;15.60;99.90;;;;;;5091018;28;20047;-68
2022/05/20 06:10:47;;;;;;;12.88;8.27;;;15.60;99.90;;;;;;5090679;28;20035;-67
2022/05/20 06:13:20;;;;;;;18.60;8.40;;;15.60;99.90;;;;;;5090919;28;20408;-67
2022/05/20 06:15:45;;;;;;;13.25;8.48;;;15.70;99.90;;;;;;5090874;28;20081;-67
2022/05/20 06:18:11;;;;;;;13.88;8.65;;;15.60;99.90;;;;;;5090630;28;20044;-67
2022/05/20 06:20:36;;;;;;;12.32;8.10;;;15.60;99.90;;;;;;5089167;28;20044;-67
2022/05/20 06:23:02;;;;;;;11.77;7.20;;;15.40;99.90;;;;;;5090909;28;20040;-67
2022/05/20 06:25:28;;;;;;;12.98;7.68;;;15.30;99.90;;;;;;5090821;28;20122;-67
2022/05/20 06:27:54;;;;;;;15.50;7.85;;;15.10;99.90;;;;;;5090707;28;20492;-67
2022/05/20 06:30:21;;;;;;;12.85;8.90;;;15.10;99.90;;;;;;5090371;28;20135;-68
2022/05/20 06:32:47;;;;;;;13.77;7.97;;;15.10;99.90;;;;;;5090549;28;20044;-67
2022/05/20 06:40:48;;;;;;;12.95;8.35;;;15.40;99.90;;;;;;5094580;28;20040;-67
2022/05/20 06:43:23;;;;;;;15.70;7.45;;;15.40;99.90;;;;;;5094543;28;20123;-67
2022/05/20 06:45:51;;;;;;;10.75;7.22;;;15.50;99.90;;;;;;5094908;28;20373;-67
2022/05/20 06:48:17;;;;;;;12.20;7.95;;;15.40;99.90;;;;;;5094667;28;20043;-67
2022/05/20 06:50:43;;;;;;;10.98;7.88;;;15.40;99.90;;;;;;5094319;28;20036;-67
2022/05/20 06:53:09;;;;;;;15.20;8.35;;;15.50;99.90;;;;;;5094663;28;20086;-67
2022/05/20 06:55:35;;;;;;;13.50;8.32;;;15.50;99.90;;;;;;5093394;28;20071;-67
2022/05/20 06:58:01;;;;;;;12.90;8.32;;;15.50;99.90;;;;;;5094572;28;20028;-67
2022/05/20 07:00:27;;;;;;;14.85;9.10;;;15.40;99.90;;;;;;5094109;28;20446;-67
2022/05/20 07:02:53;;;;;;;13.18;8.45;;;15.50;99.90;;;;;;5094340;28;20040;-67
2022/05/20 07:05:19;;;;;;;15.27;8.82;;;15.70;99.90;;;;;;5094244;28;20036;-67
2022/05/20 07:07:44;;;;;;;13.00;9.55;;;15.90;99.90;;;;;;5094224;28;20191;-67
2022/05/20 07:10:12;;;;;;;13.15;8.68;;;15.80;99.90;;;;;;5093735;28;20071;-67
2022/05/20 07:12:38;;;;;;;13.68;8.60;;;15.90;99.90;;;;;;5094218;28;20048;-67
2022/05/20 07:15:05;;;;;;;14.05;8.52;;;15.80;99.90;;;;;;5092795;28;20092;-67
2022/05/20 07:17:31;;;;;;;15.50;9.50;;;15.90;99.90;;;;;;5093927;28;20043;-67
2022/05/20 07:19:57;;;;;;;16.42;8.40;;;15.90;99.90;;;;;;5093750;28;20036;-67
2022/05/20 07:22:23;;;;;;;15.07;8.60;;;16.00;99.90;;;;;;5093927;28;20493;-67
2022/05/20 07:24:49;;;;;;;12.50;8.57;;;15.90;99.90;;;;;;5093795;28;20088;-67
2022/05/20 07:27:15;;;;;;;16.88;9.23;;;15.90;99.90;;;;;;5094084;28;20032;-67
2022/05/20 07:29:41;;;;;;;17.98;10.05;;;16.10;99.90;;;;;;5093652;28;20108;-67
2022/05/20 07:32:07;;;;;;;17.25;10.52;;;16.10;99.90;;;;;;5092372;28;20044;-67
2022/05/20 07:34:33;;;;;;;15.43;10.20;;;16.00;99.90;;;;;;5093696;28;20443;-67
2022/05/20 07:36:59;;;;;;;15.60;10.23;;;16.10;99.90;;;;;;5093697;28;20043;-67
2022/05/20 07:39:24;;;;;;;14.75;10.25;;;16.30;99.90;;;;;;5093138;28;20047;-67
2022/05/20 07:41:51;;;;;;;15.75;11.15;;;16.20;99.90;;;;;;5093650;28;20039;-67
2022/05/20 07:44:17;;;;;;;16.08;10.85;;;16.40;99.90;;;;;;5093639;28;20105;-67
2022/05/20 07:46:43;;;;;;;14.93;10.60;;;16.40;99.90;;;;;;5093511;28;20044;-67
2022/05/20 07:49:08;;;;;;;17.75;10.30;;;16.70;99.90;;;;;;5092307;28;20453;-67
2022/05/20 07:51:37;;;;;;;18.30;9.95;;;16.80;99.90;;;;;;5093326;28;20401;-67
2022/05/20 07:54:09;;;;;;;17.10;9.75;;;16.80;99.90;;;;;;5093211;28;20040;-67
2022/05/20 07:56:49;;;;;;;14.18;10.02;;;16.70;99.90;;;;;;5093537;28;20085;-67
2022/05/20 07:59:40;;;;;;;13.23;9.50;;;16.70;99.90;;;;;;5092911;28;20040;-68
2022/05/20 08:02:07;;;;;;;13.75;9.90;;;16.80;99.90;;;;;;5084771;28;20109;-67
2022/05/20 08:04:55;;;;;;;17.85;10.57;;;16.90;99.90;;;;;;5093074;28;20040;-67
2022/05/20 08:07:24;;;;;;;14.18;10.27;;;17.00;99.90;;;;;;5093320;28;20050;-67
2022/05/20 08:09:50;;;;;;;12.48;10.02;;;17.00;99.90;;;;;;5092836;28;20138;-67
2022/05/20 08:12:16;;;;;;;13.60;9.95;;;17.10;99.90;;;;;;5092939;28;20556;-67
2022/05/20 08:14:41;;;;;;;12.88;10.68;;;17.20;99.90;;;;;;5092931;28;20037;-67
2022/05/20 08:17:07;;;;;;;16.50;9.77;;;17.20;99.90;;;;;;5092889;28;20032;-67
2022/05/20 08:19:33;;;;;;;13.15;10.65;;;17.30;99.90;;;;;;5092708;28;20043;-67
2022/05/20 08:21:59;;;;;;;14.30;9.85;;;17.30;99.90;;;;;;5092864;28;20536;-67
2022/05/20 08:24:25;;;;;;;12.50;9.05;;;17.50;99.90;;;;;;5093217;28;20090;-67
2022/05/20 08:26:51;;;;;;;12.38;9.48;;;17.60;99.90;;;;;;5091466;28;20040;-67
2022/05/20 08:29:18;;;;;;;13.98;9.70;;;17.40;99.90;;;;;;5091112;28;20055;-67
2022/05/20 08:31:45;;;;;;;14.13;10.48;;;17.60;99.90;;;;;;5092894;28;20075;-67
2022/05/20 08:34:13;;;;;;;13.70;8.95;;;17.60;99.90;;;;;;5092519;28;20092;-67
2022/05/20 08:36:40;;;;;;;15.02;9.85;;;17.70;99.90;;;;;;5092611;28;20064;-67
2022/05/20 08:39:10;;;;;;;13.65;9.45;;;17.60;99.90;;;;;;5092190;28;20156;-67
2022/05/20 08:41:54;;;;;;;10.45;8.55;;;17.60;99.90;;;;;;5091154;28;20048;-67
2022/05/20 08:44:24;;;;;;;10.68;7.75;;;17.50;99.90;;;;;;5092580;28;20369;-67
2022/05/20 08:46:50;;;;;;;9.45;8.52;;;17.60;99.90;;;;;;5092462;28;20075;-67
2022/05/20 08:49:18;;;;;;;10.98;8.98;;;17.60;99.90;;;;;;5092118;28;20040;-67
2022/05/20 08:51:52;;;;;;;11.88;8.50;;;17.40;99.90;;;;;;5092221;28;20102;-67
2022/05/20 08:54:19;;;;;;;13.05;9.50;;;17.30;99.90;;;;;;5092130;28;20085;-67
2022/05/20 08:56:46;;;;;;;16.15;9.68;;;17.50;99.90;;;;;;5092081;28;20412;-67
2022/05/20 08:59:17;;;;;;;10.82;9.15;;;17.60;99.90;;;;;;5091655;28;20390;-67
2022/05/20 09:01:45;;;;;;;10.07;8.35;;;17.80;99.90;;;;;;5091185;28;20166;-67
2022/05/20 09:04:13;;;;;;;12.93;9.05;;;18.00;99.90;;;;;;5092002;28;20040;-68
2022/05/20 09:06:59;;;;;;;11.60;9.02;;;18.20;99.90;;;;;;5090646;28;20035;-67
2022/05/20 09:09:46;;;;;;;11.70;8.65;;;18.20;99.90;;;;;;5080674;28;20083;-67
2022/05/20 09:12:26;;;;;;;12.85;9.80;;;18.20;99.90;;;;;;5091948;28;20093;-67
2022/05/20 09:18:02;;;;;;;14.50;8.75;;;18.00;99.90;;;;;;5092009;28;20043;-67
2022/05/20 09:20:28;;;;;;;9.80;8.35;;;18.10;99.90;;;;;;5090215;28;20457;-67
2022/05/20 09:23:02;;;;;;;12.45;9.23;;;18.30;99.90;;;;;;5091675;28;20079;-67
2022/05/20 09:25:32;;;;;;;10.57;8.50;;;18.10;99.90;;;;;;5091464;28;20424;-67
2022/05/20 09:28:36;;;;;;;13.43;8.98;;;18.20;99.90;;;;;;5091709;28;20078;-67
2022/05/20 09:31:12;;;;;;;13.00;10.55;;;18.30;99.90;;;;;;5080416;28;20088;-68
2022/05/20 09:33:38;;;;;;;13.85;10.07;;;18.40;99.90;;;;;;5091693;28;20153;-67
2022/05/20 09:36:04;;;;;;;15.25;10.27;;;18.30;99.90;;;;;;5091356;28;20439;-68
2022/05/20 09:38:32;;;;;;;14.48;9.70;;;18.40;99.90;;;;;;5091365;28;20032;-67
2022/05/20 09:40:58;;;;;;;12.35;8.75;;;18.40;99.90;;;;;;5091447;28;20043;-68
2022/05/20 09:43:30;;;;;;;10.38;9.15;;;18.50;99.90;;;;;;5090166;28;20032;-67
2022/05/20 09:45:58;;;;;;;11.48;8.18;;;18.60;99.90;;;;;;5091427;28;20042;-67
2022/05/20 09:48:58;;;;;;;10.60;6.90;;;18.70;99.90;;;;;;5091011;28;20701;-67
2022/05/20 09:51:41;;;;;;;10.10;8.80;;;18.60;99.90;;;;;;5091254;28;20043;-67
2022/05/20 09:54:13;;;;;;;10.07;8.45;;;18.50;99.90;;;;;;5091277;28;20036;-68
2022/05/20 09:56:45;;;;;;;9.35;7.25;;;18.60;99.90;;;;;;5091184;28;20040;-67
2022/05/20 09:59:19;;;;;;;11.15;7.28;;;18.60;99.90;;;;;;5090551;28;20504;-67
2022/05/20 10:02:14;;;;;;;8.18;6.50;;;18.60;99.90;;;;;;5089765;28;20059;-67
2022/05/20 10:04:46;;;;;;;7.88;7.07;;;18.60;99.90;;;;;;5090918;28;20559;-67
2022/05/20 10:07:17;;;;;;;7.82;6.53;;;18.60;99.90;;;;;;5090827;28;20043;-68
2022/05/20 10:09:56;;;;;;;9.77;5.93;;;18.80;99.90;;;;;;5090784;28;20040;-67
2022/05/20 10:12:36;;;;;;;7.55;5.75;;;18.80;99.90;;;;;;5090746;28;20386;-68
2022/05/20 10:15:12;;;;;;;10.32;6.00;;;18.80;99.90;;;;;;5091041;28;20032;-67
2022/05/20 10:18:08;;;;;;;6.13;4.95;;;18.90;99.90;;;;;;5090932;28;20043;-68
2022/05/20 10:20:36;;;;;;;6.53;4.35;;;18.90;99.90;;;;;;5090678;28;20138;-67
2022/05/20 10:23:32;;;;;;;7.05;4.97;;;18.90;99.90;;;;;;5090788;28;20043;-67
2022/05/20 10:26:14;;;;;;;9.43;6.38;;;19.00;99.90;;;;;;5090753;28;20040;-67
2022/05/20 10:34:40;;;;;;;8.25;6.03;;;19.00;99.90;;;;;;5090542;28;20734;-67
2022/05/20 10:37:35;;;;;;;6.45;5.30;;;19.10;99.90;;;;;;5090876;28;20403;-68
2022/05/20 10:40:23;;;;;;;10.15;6.63;;;19.10;99.90;;;;;;5090196;28;20480;-67
2022/05/20 10:43:01;;;;;;;9.48;6.75;;;19.10;99.90;;;;;;5089370;28;20496;-67
2022/05/20 10:49:04;;;;;;;8.48;5.93;;;19.10;99.90;;;;;;5088930;28;20048;-67
2022/05/20 10:51:40;;;;;;;7.40;6.38;;;19.10;99.90;;;;;;5090344;28;20040;-67
2022/05/20 10:54:35;;;;;;;8.77;6.10;;;19.20;99.90;;;;;;5090688;28;20085;-67
2022/05/20 10:57:06;;;;;;;6.75;5.70;;;19.20;99.90;;;;;;5089230;28;20484;-68
2022/05/20 10:59:42;;;;;;;10.93;7.55;;;19.20;99.90;;;;;;5089970;28;20048;-67
2022/05/20 11:02:32;;;;;;;9.98;7.32;;;19.40;99.90;;;;;;5090691;28;20416;-68
2022/05/20 11:05:20;;;;;;;7.28;6.10;;;19.40;99.90;;;;;;5090243;28;20499;-68
2022/05/20 11:08:04;;;;;;;10.70;6.47;;;19.40;99.90;;;;;;5089059;28;20044;-67
2022/05/20 11:10:59;;;;;;;7.80;6.10;;;19.40;99.90;;;;;;5090288;28;20048;-67
2022/05/20 11:13:25;;;;;;;7.65;6.72;;;19.60;99.90;;;;;;5090445;28;20412;-67
2022/05/20 11:16:03;;;;;;;12.05;6.80;;;19.50;99.90;;;;;;5090231;28;20036;-67
2022/05/20 11:18:41;;;;;;;8.43;6.13;;;19.60;99.90;;;;;;5090226;28;20039;-67
2022/05/20 11:21:25;;;;;;;7.65;5.10;;;19.70;99.90;;;;;;5090434;28;20443;-67
2022/05/20 11:24:03;;;;;;;7.75;5.50;;;19.90;99.90;;;;;;5092606;28;20047;-67
2022/05/20 11:26:43;;;;;;;11.07;6.15;;;19.90;99.90;;;;;;5093860;28;20545;-68
2022/05/20 11:29:25;;;;;;;9.95;5.75;;;19.80;99.90;;;;;;5093613;28;20050;-67
2022/05/20 11:31:57;;;;;;;5.22;4.47;;;19.90;99.90;;;;;;5093896;28;20040;-67
2022/05/20 11:35:01;;;;;;;6.97;4.90;;;19.80;99.90;;;;;;5093746;28;20032;-67
2022/05/20 11:37:45;;;;;;;7.70;4.32;;;20.00;99.90;;;;;;5093871;28;20050;-67
2022/05/20 11:40:52;;;;;;;6.05;3.67;;;20.00;99.90;;;;;;5093364;28;20035;-68
2022/05/20 11:43:45;;;;;;;8.07;3.70;;;20.10;99.90;;;;;;5093113;28;20128;-67
2022/05/20 11:46:16;;;;;;;4.25;2.80;;;20.00;95.40;;;;;;5093755;28;20449;-68
2022/05/20 11:49:16;;;;;;;5.50;3.50;;;19.90;99.90;;;;;;5093262;28;20040;-67
2022/05/20 11:52:10;;;;;;;6.90;3.78;;;20.00;99.90;;;;;;5070349;28;20079;-67
2022/05/20 11:54:50;;;;;;;5.82;4.43;;;20.20;99.90;;;;;;5093521;28;20043;-67
2022/05/20 11:57:26;;;;;;;6.80;4.15;;;20.10;99.90;;;;;;5093378;28;20399;-67
2022/05/20 12:00:03;;;;;;;9.13;4.47;;;20.20;99.90;;;;;;5092648;28;20044;-68
2022/05/20 12:02:34;;;;;;;7.10;4.75;;;20.20;99.90;;;;;;5093435;28;20043;-67
2022/05/20 12:05:01;;;;;;;5.07;4.20;;;20.10;99.90;;;;;;5093198;28;20540;-68
2022/05/20 12:07:27;;;;;;;9.13;4.95;;;20.20;99.90;;;;;;5093063;28;20807;-67
2022/05/20 12:09:58;;;;;;;5.88;4.47;;;20.10;99.90;;;;;;5092780;28;20040;-67
2022/05/20 12:12:27;;;;;;;5.88;4.80;;;20.10;99.90;;;;;;5092853;28;20047;-67
2022/05/20 12:15:28;;;;;;;7.75;4.30;;;20.10;99.90;;;;;;5091675;28;20044;-67
2022/05/20 12:17:54;;;;;;;8.30;4.72;;;20.20;99.90;;;;;;5092835;28;20050;-67
2022/05/20 12:26:54;;;;;;;12.68;6.88;;;20.40;99.90;;;;;;5092946;28;20146;-67
2022/05/20 12:29:35;;;;;;;10.27;6.32;;;20.50;99.90;;;;;;5074577;28;20055;-67
2022/05/20 12:32:31;;;;;;;8.68;6.65;;;20.30;99.90;;;;;;5092675;28;20097;-67
2022/05/20 12:35:24;;;;;;;8.00;6.22;;;20.40;99.90;;;;;;5092291;28;20071;-68
2022/05/20 12:37:49;;;;;;;12.80;5.03;;;20.40;99.90;;;;;;5092714;28;20047;-67
2022/05/20 12:40:28;;;;;;;6.97;4.97;;;20.40;99.90;;;;;;5092290;28;20049;-67
2022/05/20 12:43:06;;;;;;;7.18;5.00;;;20.30;99.90;;;;;;5092527;28;20036;-67
2022/05/20 12:45:55;;;;;;;8.63;4.43;;;20.30;99.90;;;;;;5092365;28;20176;-67
2022/05/20 12:48:28;;;;;;;9.00;6.03;;;20.30;99.90;;;;;;5080847;28;20059;-67
2022/05/20 12:51:03;;;;;;;9.50;8.05;;;20.30;99.90;;;;;;5092247;28;20097;-67
2022/05/20 12:53:30;;;;;;;11.18;8.00;;;20.20;99.90;;;;;;5092284;28;20047;-67
2022/05/20 12:55:57;;;;;;;12.00;8.07;;;20.20;99.90;;;;;;5092223;28;20047;-67
2022/05/20 12:58:28;;;;;;;10.63;7.72;;;20.20;99.90;;;;;;5092233;28;20450;-67
2022/05/20 13:00:58;;;;;;;10.75;7.25;;;20.20;99.90;;;;;;5090539;28;20036;-67
2022/05/20 13:03:26;;;;;;;12.15;6.97;;;20.20;99.90;;;;;;5092185;28;20461;-67
2022/05/20 13:06:02;;;;;;;11.68;6.88;;;20.10;99.90;;;;;;5091958;28;20047;-67
2022/05/20 13:08:40;;;;;;;9.25;6.22;;;20.20;99.90;;;;;;5091642;28;20035;-67
2022/05/20 13:11:11;;;;;;;13.05;6.97;;;20.10;99.90;;;;;;5091989;28;20028;-67
2022/05/20 13:13:37;;;;;;;9.70;5.85;;;20.10;99.90;;;;;;5092009;28;20481;-67
2022/05/20 13:16:06;;;;;;;6.88;5.90;;;20.00;99.90;;;;;;5091902;28;20032;-67
2022/05/20 13:18:37;;;;;;;10.65;6.22;;;20.00;99.90;;;;;;5090193;28;20139;-67
2022/05/20 13:21:16;;;;;;;7.95;6.13;;;19.90;99.90;;;;;;5073353;28;20028;-68
2022/05/20 13:23:46;;;;;;;10.20;7.18;;;19.90;99.90;;;;;;5091749;28;20044;-67
2022/05/20 13:26:25;;;;;;;12.20;8.18;;;19.80;99.90;;;;;;5091768;28;20035;-67
2022/05/20 13:28:52;;;;;;;12.18;8.00;;;19.70;99.90;;;;;;5091153;28;20549;-67
2022/05/20 13:31:23;;;;;;;13.63;8.40;;;19.70;99.90;;;;;;5091385;28;20094;-67
2022/05/20 13:33:50;;;;;;;13.00;8.60;;;19.70;99.90;;;;;;5091715;28;20050;-67
2022/05/20 13:36:22;;;;;;;11.73;8.85;;;19.70;99.90;;;;;;5091606;28;20053;-67